createdAt,value
2023-10-10T00:00:14.599Z,60.58
2023-10-10T00:05:27.535Z,60.59
2023-10-10T00:10:26.376Z,60.64
2023-10-10T00:15:26.298Z,60.67
2023-10-10T00:20:26.256Z,60.70
2023-10-10T00:25:26.171Z,60.76
2023-10-10T00:30:26.098Z,60.79
2023-10-10T00:35:26.055Z,60.83
2023-10-10T00:40:25.953Z,60.84
2023-10-10T00:45:25.925Z,60.88
2023-10-10T00:50:25.844Z,60.91
2023-10-10T00:55:25.771Z,60.94
2023-10-10T01:00:25.681Z,60.99
2023-10-10T01:05:25.708Z,61.01
2023-10-10T01:10:25.543Z,61.05
2023-10-10T01:15:25.502Z,61.08
2023-10-10T01:20:25.494Z,61.10
2023-10-10T01:25:25.374Z,61.14
2023-10-10T01:30:25.255Z,61.20
2023-10-10T01:35:25.264Z,61.22
2023-10-10T01:40:25.149Z,61.24
2023-10-10T01:45:25.133Z,61.26
2023-10-10T01:50:25.057Z,61.27
2023-10-10T01:55:24.956Z,61.30
2023-10-10T02:00:24.915Z,61.32
2023-10-10T02:05:24.868Z,61.34
2023-10-10T02:10:24.729Z,61.37
2023-10-10T02:15:24.678Z,61.37
2023-10-10T02:20:24.721Z,61.39
2023-10-10T02:25:24.582Z,61.41
2023-10-10T02:30:24.481Z,61.44
2023-10-10T02:35:24.442Z,61.45
2023-10-10T02:40:24.348Z,61.50
2023-10-10T02:45:24.291Z,61.54
2023-10-10T02:50:24.216Z,61.57
2023-10-10T02:55:24.328Z,61.61
2023-10-10T03:00:24.088Z,61.64
2023-10-10T03:05:24.045Z,61.66
2023-10-10T03:10:24.626Z,61.70
2023-10-10T03:15:23.880Z,61.74
2023-10-10T03:20:23.863Z,61.75
2023-10-10T03:25:23.725Z,61.79
2023-10-10T03:30:23.669Z,61.79
2023-10-10T03:35:23.625Z,61.80
2023-10-10T03:40:23.507Z,61.83
2023-10-10T03:45:23.493Z,61.86
2023-10-10T03:50:23.475Z,61.92
2023-10-10T03:55:23.336Z,61.91
2023-10-10T04:00:23.346Z,61.96
2023-10-10T04:05:27.898Z,61.99
2023-10-10T04:10:24.132Z,62.01
2023-10-10T04:15:34.629Z,62.05
2023-10-10T04:20:34.545Z,62.10
2023-10-10T04:25:34.463Z,62.11
2023-10-10T04:30:34.415Z,62.17
2023-10-10T04:35:34.428Z,62.21
2023-10-10T04:40:34.235Z,62.24
2023-10-10T04:45:34.189Z,62.26
2023-10-10T04:50:34.157Z,62.29
2023-10-10T04:55:34.061Z,62.31
2023-10-10T05:00:33.995Z,62.31
2023-10-10T05:05:33.966Z,62.30
2023-10-10T05:10:33.824Z,62.31
2023-10-10T05:15:33.851Z,62.33
2023-10-10T05:20:33.773Z,62.36
2023-10-10T05:25:33.641Z,62.39
2023-10-10T05:30:33.561Z,62.41
2023-10-10T05:35:33.545Z,62.41
2023-10-10T05:40:33.421Z,62.42
2023-10-10T05:45:33.415Z,62.42
2023-10-10T05:50:33.301Z,62.40
2023-10-10T05:55:33.235Z,62.37
2023-10-10T06:00:33.159Z,62.27
2023-10-10T06:05:33.159Z,62.06
2023-10-10T06:10:32.998Z,61.82
2023-10-10T06:15:32.962Z,61.62
2023-10-10T06:20:32.939Z,61.41
2023-10-10T06:25:32.811Z,61.10
2023-10-10T06:30:32.807Z,60.90
2023-10-10T06:35:32.743Z,60.84
2023-10-10T06:40:32.595Z,60.82
2023-10-10T06:45:32.592Z,60.74
2023-10-10T06:50:32.545Z,60.54
2023-10-10T06:55:32.435Z,59.94
2023-10-10T07:00:32.358Z,58.82
2023-10-10T07:05:32.366Z,58.00
2023-10-10T07:10:32.232Z,57.59
2023-10-10T07:15:32.167Z,56.86
2023-10-10T07:20:32.101Z,55.82
2023-10-10T07:25:32.075Z,54.61
2023-10-10T07:30:31.993Z,54.20
2023-10-10T07:35:31.949Z,53.55
2023-10-10T07:40:31.842Z,53.45
2023-10-10T07:45:31.744Z,53.32
2023-10-10T07:50:31.768Z,52.86
2023-10-10T07:55:31.615Z,52.21
2023-10-10T08:00:31.536Z,51.62
2023-10-10T08:05:31.554Z,51.57
2023-10-10T08:10:31.601Z,52.05
2023-10-10T08:15:31.352Z,50.51
2023-10-10T08:20:31.363Z,48.98
2023-10-10T08:25:31.285Z,48.29
2023-10-10T08:30:31.222Z,48.91
2023-10-10T08:35:31.760Z,47.83
2023-10-10T08:40:30.996Z,46.70
2023-10-10T08:45:30.969Z,44.96
2023-10-10T08:50:30.931Z,42.34
2023-10-10T08:55:30.825Z,38.77
2023-10-10T09:00:30.816Z,40.34
2023-10-10T09:05:30.800Z,37.62
2023-10-10T09:10:30.642Z,36.31
2023-10-10T09:15:30.575Z,35.49
2023-10-10T09:20:30.588Z,33.98
2023-10-10T09:25:30.404Z,34.19
2023-10-10T09:30:30.387Z,35.82
2023-10-10T09:35:30.335Z,35.73
2023-10-10T09:40:30.190Z,34.78
2023-10-10T09:45:30.304Z,34.43
2023-10-10T09:50:30.135Z,36.36
2023-10-10T09:55:30.024Z,36.74
2023-10-10T10:00:29.969Z,38.44
2023-10-10T10:05:30.702Z,38.93
2023-10-10T10:10:29.814Z,39.42
2023-10-10T10:15:29.821Z,39.36
2023-10-10T10:20:29.736Z,38.58
2023-10-10T10:25:29.677Z,39.88
2023-10-10T10:30:29.575Z,41.28
2023-10-10T10:35:29.518Z,42.86
2023-10-10T10:40:29.428Z,43.22
2023-10-10T10:45:29.388Z,43.08
2023-10-10T10:50:29.325Z,42.16
2023-10-10T10:55:29.289Z,41.29
2023-10-10T11:00:29.234Z,41.13
2023-10-10T11:05:29.150Z,40.84
2023-10-10T11:10:29.077Z,40.97
2023-10-10T11:15:28.981Z,41.50
2023-10-10T11:20:29.012Z,41.98
2023-10-10T11:25:28.835Z,41.70
2023-10-10T11:30:28.755Z,40.24
2023-10-10T11:35:28.748Z,38.64
2023-10-10T11:40:28.681Z,38.07
2023-10-10T11:45:28.747Z,37.04
2023-10-10T11:50:28.667Z,37.66
2023-10-10T11:55:28.577Z,37.18
2023-10-10T12:00:28.649Z,36.18
2023-10-10T12:05:28.356Z,36.71
2023-10-10T12:10:28.270Z,37.26
2023-10-10T12:15:28.195Z,37.81
2023-10-10T12:20:28.151Z,39.12
2023-10-10T12:25:28.058Z,39.79
2023-10-10T12:30:28.874Z,42.51
2023-10-10T12:35:27.957Z,43.97
2023-10-10T12:40:27.900Z,44.83
2023-10-10T12:45:27.790Z,45.12
2023-10-10T12:50:27.710Z,45.71
2023-10-10T12:55:27.653Z,45.76
2023-10-10T13:00:27.583Z,45.85
2023-10-10T13:05:27.570Z,45.95
2023-10-10T13:10:27.458Z,45.99
2023-10-10T13:15:27.429Z,45.97
2023-10-10T13:20:27.341Z,46.08
2023-10-10T13:25:27.254Z,46.15
2023-10-10T13:30:27.191Z,46.26
2023-10-10T13:35:27.162Z,46.17
2023-10-10T13:40:27.041Z,46.06
2023-10-10T13:45:27.013Z,46.08
2023-10-10T13:50:26.945Z,46.12
2023-10-10T13:55:26.874Z,46.15
2023-10-10T14:00:26.769Z,46.12
2023-10-10T14:05:26.756Z,46.02
2023-10-10T14:10:26.652Z,46.10
2023-10-10T14:15:26.588Z,46.17
2023-10-10T14:20:26.855Z,46.28
2023-10-10T14:25:26.489Z,46.49
2023-10-10T14:30:26.384Z,46.60
2023-10-10T14:35:26.467Z,47.13
2023-10-10T14:40:26.231Z,47.14
2023-10-10T14:45:26.220Z,47.37
2023-10-10T14:50:26.216Z,47.50
2023-10-10T14:55:26.083Z,47.51
2023-10-10T15:00:26.008Z,47.56
2023-10-10T15:05:26.063Z,47.71
2023-10-10T15:10:25.849Z,47.85
2023-10-10T15:15:25.801Z,47.93
2023-10-10T15:20:25.734Z,48.09
2023-10-10T15:25:25.647Z,48.30
2023-10-10T15:30:25.616Z,48.51
2023-10-10T15:35:25.555Z,48.72
2023-10-10T15:40:25.502Z,48.94
2023-10-10T15:45:25.385Z,49.13
2023-10-10T15:50:26.250Z,49.29
2023-10-10T15:55:26.374Z,49.48
2023-10-10T16:00:25.352Z,49.66
2023-10-10T16:05:25.573Z,49.82
2023-10-10T16:10:25.032Z,49.96
2023-10-10T16:15:30.898Z,50.13
2023-10-10T16:20:26.020Z,50.27
2023-10-10T16:25:24.814Z,50.41
2023-10-10T16:30:24.790Z,50.60
2023-10-10T16:35:24.721Z,50.76
2023-10-10T16:40:24.621Z,50.90
2023-10-10T16:45:24.566Z,51.09
2023-10-10T16:50:24.516Z,51.23
2023-10-10T16:55:24.441Z,51.38
2023-10-10T17:00:24.384Z,51.51
2023-10-10T17:05:24.369Z,51.62
2023-10-10T17:10:24.276Z,51.77
2023-10-10T17:15:24.150Z,51.90
2023-10-10T17:20:24.105Z,52.00
2023-10-10T17:25:24.173Z,52.12
2023-10-10T17:30:23.964Z,52.23
2023-10-10T17:35:24.003Z,52.35
2023-10-10T17:40:23.829Z,52.45
2023-10-10T17:45:23.753Z,52.53
2023-10-10T17:50:23.773Z,52.60
2023-10-10T17:55:23.637Z,52.70
2023-10-10T18:00:23.549Z,52.78
2023-10-10T18:05:23.520Z,52.86
2023-10-10T18:10:23.416Z,52.94
2023-10-10T18:15:23.418Z,53.04
2023-10-10T18:20:24.190Z,53.12
2023-10-10T18:25:23.232Z,53.21
2023-10-10T18:30:23.164Z,53.25
2023-10-10T18:35:23.093Z,53.33
2023-10-10T18:40:23.000Z,53.39
2023-10-10T18:45:22.950Z,53.44
2023-10-10T18:50:22.972Z,53.49
2023-10-10T18:55:22.818Z,53.53
2023-10-10T19:00:22.760Z,53.57
2023-10-10T19:05:22.661Z,53.57
2023-10-10T19:10:25.053Z,53.59
2023-10-10T19:15:22.563Z,53.61
2023-10-10T19:20:25.301Z,53.66
2023-10-10T19:25:22.455Z,53.69
2023-10-10T19:30:22.337Z,53.72
2023-10-10T19:35:22.785Z,53.79
2023-10-10T19:40:22.245Z,53.85
2023-10-10T19:45:25.629Z,53.90
2023-10-10T19:50:22.073Z,53.95
2023-10-10T19:55:22.769Z,54.00
2023-10-10T20:00:21.944Z,54.05
2023-10-10T20:05:22.125Z,54.10
2023-10-10T20:10:21.797Z,54.14
2023-10-10T20:15:21.808Z,54.19
2023-10-10T20:20:21.670Z,54.27
2023-10-10T20:25:21.647Z,54.33
2023-10-10T20:30:21.565Z,54.39
2023-10-10T20:35:21.466Z,54.41
2023-10-10T20:40:21.397Z,54.43
2023-10-10T20:45:21.355Z,54.45
2023-10-10T20:50:21.370Z,54.46
2023-10-10T20:55:21.234Z,54.46
2023-10-10T21:00:21.138Z,54.51
2023-10-10T21:05:21.068Z,54.54
2023-10-10T21:10:20.999Z,54.60
2023-10-10T21:15:20.950Z,54.63
2023-10-10T21:20:20.853Z,54.68
2023-10-10T21:25:20.820Z,54.69
2023-10-10T21:30:20.744Z,54.68
2023-10-10T21:35:20.803Z,54.73
2023-10-10T21:40:20.606Z,54.75
2023-10-10T21:45:20.838Z,54.79
2023-10-10T21:50:20.460Z,54.81
2023-10-10T21:55:20.451Z,54.86
2023-10-10T22:00:20.314Z,54.89
2023-10-10T22:05:20.278Z,54.96
2023-10-10T22:10:20.176Z,54.99
2023-10-10T22:15:20.103Z,55.03
2023-10-10T22:20:20.043Z,55.10
2023-10-10T22:25:20.022Z,55.16
2023-10-10T22:30:19.916Z,55.21
2023-10-10T22:35:19.887Z,55.30
2023-10-10T22:40:19.825Z,55.35
2023-10-10T22:45:19.696Z,55.40
2023-10-10T22:50:19.689Z,55.45
2023-10-10T22:55:19.604Z,55.52
2023-10-10T23:00:19.492Z,55.56
2023-10-10T23:05:19.456Z,55.58
2023-10-10T23:10:19.392Z,55.64
2023-10-10T23:15:19.330Z,55.72
2023-10-10T23:20:19.237Z,55.80
2023-10-10T23:25:19.192Z,55.88
2023-10-10T23:30:19.108Z,55.95
2023-10-10T23:35:19.040Z,56.02
2023-10-10T23:40:18.974Z,56.06
2023-10-10T23:45:18.978Z,56.13
2023-10-10T23:50:18.852Z,56.18
2023-10-10T23:55:18.776Z,56.25
